Share

Kapaa, HI

Kalihiwai Ridge (KHIKILAU2) Elev 325 ft | 22.19 °N, 159.43 °W | Change Station

Current weather conditions updated 1 second ago

Partly Cloudy
Partly Cloudy
71.2 °F
Feels Like 71.2 °F
N
0.0
Wind Variable Wind from SE
Gusts 5.0 mph
Sunrise 6:16 AM
Sunset 6:57 PM
Moon Waning Gibbous

Tomorrow is forecast to be Cooler than today. Showers tomorrow night.

Pressure 30.11 in
Visibility 10.0 miles
Clouds Few 200 ft
Dew Point 67 °F
Humidity 87%
Rainfall 0.03 in
Snow Depth Not available.
UV 0 out of 16
Pollen Not available.
Air Quality Not available.
Flu Activity Sporadic
METAR PHJR 170453Z 07008KT 10SM FEW002 24/17 A3009 RMK AO2 SLP196 T02440167

More Conditions Fewer Conditions

Pressure 30.11 in
Visibility 10.0 miles
Clouds Few 200 ft
Dew Point 67 °F
Humidity 87%
Rainfall 0.03 in
Snow Depth Not available.
UV 0 out of 16
Pollen Not available.
Air Quality Not available.
Flu Activity Sporadic
METAR PHJR 170453Z 07008KT 10SM FEW002 24/17 A3009 RMK AO2 SLP196 T02440167

More Conditions Fewer Conditions

10-Day Forecast

Almanac

Astronomy

Apr. 16, 2014 Rise Set
Actual Time 6:16 AM HST 6:57 PM HST
Civil Twilight 5:53 AM HST 7:20 PM HST
Nautical Twilight 5:27 AM HST 7:47 PM HST
Astronomical Twilight 4:59 AM HST 8:14 PM HST
Moon 8:42 PM HST (4/16) 7:20 AM HST (4/16)
Length of Visible Light 13h 26m
Length of Day
12h 41m
Tomorrow will be 1m 12s longer.
Waning Gibbous, 96% of the Moon is Illuminated
Apr 17
Waning Gibbous
Apr 22
Last Quarter
Apr 29
New
May 6
First Quarter
May 14
Full

Yesterday's Extremes

State Highs State Lows

Community

  • symphony in blue....
    symphony in blue....
  • Dawn Surprise
    Dawn Surprise
  • Yucca delight
    Yucca delight
  • Sunset inside of the Ocean
    Sunset inside of the Ocean
  • Lunar eclipse 15 April 2014
    Lunar eclipse 15 April 2014

WunderPhotos

Upload Photos

1,701,858 photos uploaded!

WunderBlogs® & News

Nearby

Snow Depth

Station Depth Elevation
No new snow has been reported.

Coastal Water Temperatures

Place Temperature
No Stations Reporting

Earthquake Activity

City Distance Mag. Time & Date
No recent earthquake activity has been reported nearby.
Minimum magnitude displayed is 2.5.

Nearby Weather Stations

Station Location Temp. Heat Index Dew Point Humidity Wind Precip. Elev Updated Type
Kalihiwai Ridge, Kilauea, HI 71.2 °F - 67 °F 87% SE  at  0.0 mph 0.00 in / hr 325 ft 7:05 PM HST Rapid Fire
Pooku, Princeville, HI 70.4 °F - 66 °F 86% SE  at  1.0 mph 0.00 in / hr 417 ft 7:05 PM HST Rapid Fire
Na Pali Properties on Kauai, Hanalei, HI 72.5 °F 72 °F 67 °F 82% NE  at  2.2 mph 0.00 in / hr 23 ft 7:05 PM HST Rapid Fire
North Shore of Kauai, Princeville, HI 71.0 °F 71 °F 66 °F 83% SE  at  12.5 mph 0.00 in / hr 0 ft 7:05 PM HST Rapid Fire

Show More Stations Show Fewer Stations

What do you think?

We're not finished. Please let us know what you like, what you don't like, and what you are still missing.